sensor_id;sensor_type;location;lat;lon;timestamp;temperature;humidity
27162;DHT22;54464;50.558;9.704;2023-06-26T00:01:19;20.60;97.40
27162;DHT22;54464;50.558;9.704;2023-06-26T00:03:46;20.70;97.50
27162;DHT22;54464;50.558;9.704;2023-06-26T00:06:12;20.70;97.60
27162;DHT22;54464;50.558;9.704;2023-06-26T00:08:37;20.20;98.40
27162;DHT22;54464;50.558;9.704;2023-06-26T00:11:03;19.70;99.60
27162;DHT22;54464;50.558;9.704;2023-06-26T00:13:28;19.30;99.90
27162;DHT22;54464;50.558;9.704;2023-06-26T00:15:54;19.00;99.90
27162;DHT22;54464;50.558;9.704;2023-06-26T00:18:20;18.90;99.90
27162;DHT22;54464;50.558;9.704;2023-06-26T00:20:46;19.20;99.90
27162;DHT22;54464;50.558;9.704;2023-06-26T00:23:12;19.20;99.90
27162;DHT22;54464;50.558;9.704;2023-06-26T00:25:38;19.40;99.90
27162;DHT22;54464;50.558;9.704;2023-06-26T00:28:04;19.50;99.90
27162;DHT22;54464;50.558;9.704;2023-06-26T00:30:29;19.70;99.90
27162;DHT22;54464;50.558;9.704;2023-06-26T00:32:55;19.70;99.90
27162;DHT22;54464;50.558;9.704;2023-06-26T00:35:21;19.90;99.90
27162;DHT22;54464;50.558;9.704;2023-06-26T00:37:46;19.90;99.80
27162;DHT22;54464;50.558;9.704;2023-06-26T00:40:12;20.00;99.90
27162;DHT22;54464;50.558;9.704;2023-06-26T00:42:38;20.10;99.60
27162;DHT22;54464;50.558;9.704;2023-06-26T00:45:04;20.10;99.50
27162;DHT22;54464;50.558;9.704;2023-06-26T00:47:30;20.30;99.10
27162;DHT22;54464;50.558;9.704;2023-06-26T00:49:55;20.30;99.30
27162;DHT22;54464;50.558;9.704;2023-06-26T00:52:21;20.20;99.50
27162;DHT22;54464;50.558;9.704;2023-06-26T00:54:49;20.10;99.70
27162;DHT22;54464;50.558;9.704;2023-06-26T00:57:17;20.20;99.40
27162;DHT22;54464;50.558;9.704;2023-06-26T00:59:42;20.10;99.00
27162;DHT22;54464;50.558;9.704;2023-06-26T01:02:08;20.00;99.50
27162;DHT22;54464;50.558;9.704;2023-06-26T01:04:35;19.80;99.80
27162;DHT22;54464;50.558;9.704;2023-06-26T01:07:02;19.90;99.90
27162;DHT22;54464;50.558;9.704;2023-06-26T01:09:28;19.90;99.90
27162;DHT22;54464;50.558;9.704;2023-06-26T01:11:54;19.80;99.90
27162;DHT22;54464;50.558;9.704;2023-06-26T01:14:20;20.10;99.80
27162;DHT22;54464;50.558;9.704;2023-06-26T01:16:46;19.80;99.60
27162;DHT22;54464;50.558;9.704;2023-06-26T01:19:26;19.70;99.90
27162;DHT22;54464;50.558;9.704;2023-06-26T01:22:25;19.80;99.90
27162;DHT22;54464;50.558;9.704;2023-06-26T01:27:34;19.50;99.90
27162;DHT22;54464;50.558;9.704;2023-06-26T01:30:02;19.10;99.90
27162;DHT22;54464;50.558;9.704;2023-06-26T01:32:30;18.80;99.90
27162;DHT22;54464;50.558;9.704;2023-06-26T01:34:56;18.80;99.90
27162;DHT22;54464;50.558;9.704;2023-06-26T01:37:22;18.90;99.90
27162;DHT22;54464;50.558;9.704;2023-06-26T01:39:48;19.00;99.90
27162;DHT22;54464;50.558;9.704;2023-06-26T01:42:13;19.10;99.90
27162;DHT22;54464;50.558;9.704;2023-06-26T01:44:44;19.20;99.90
27162;DHT22;54464;50.558;9.704;2023-06-26T01:47:11;19.30;99.90
27162;DHT22;54464;50.558;9.704;2023-06-26T01:49:47;19.40;99.90
27162;DHT22;54464;50.558;9.704;2023-06-26T01:55:05;19.50;99.90
27162;DHT22;54464;50.558;9.704;2023-06-26T01:57:31;19.40;99.90
27162;DHT22;54464;50.558;9.704;2023-06-26T01:59:57;19.40;99.90
27162;DHT22;54464;50.558;9.704;2023-06-26T02:02:28;19.40;99.90
27162;DHT22;54464;50.558;9.704;2023-06-26T02:04:57;19.30;99.90
27162;DHT22;54464;50.558;9.704;2023-06-26T02:07:23;19.20;99.90
27162;DHT22;54464;50.558;9.704;2023-06-26T02:09:48;19.30;99.90
27162;DHT22;54464;50.558;9.704;2023-06-26T02:12:23;19.10;99.90
27162;DHT22;54464;50.558;9.704;2023-06-26T02:14:48;19.10;99.90
27162;DHT22;54464;50.558;9.704;2023-06-26T02:17:15;18.90;99.90
27162;DHT22;54464;50.558;9.704;2023-06-26T02:19:40;18.90;99.90
27162;DHT22;54464;50.558;9.704;2023-06-26T02:22:16;19.00;99.90
27162;DHT22;54464;50.558;9.704;2023-06-26T02:24:44;19.00;99.90
27162;DHT22;54464;50.558;9.704;2023-06-26T02:27:10;18.90;99.90
27162;DHT22;54464;50.558;9.704;2023-06-26T02:29:41;19.00;99.90
27162;DHT22;54464;50.558;9.704;2023-06-26T02:32:07;19.00;99.90
27162;DHT22;54464;50.558;9.704;2023-06-26T02:34:34;18.80;99.90
27162;DHT22;54464;50.558;9.704;2023-06-26T02:37:05;18.90;99.90
27162;DHT22;54464;50.558;9.704;2023-06-26T02:39:36;18.40;99.90
27162;DHT22;54464;50.558;9.704;2023-06-26T02:42:02;18.30;99.90
27162;DHT22;54464;50.558;9.704;2023-06-26T02:44:30;18.40;99.90
27162;DHT22;54464;50.558;9.704;2023-06-26T02:47:05;18.50;99.90
27162;DHT22;54464;50.558;9.704;2023-06-26T02:49:31;18.50;99.90
27162;DHT22;54464;50.558;9.704;2023-06-26T02:52:05;18.60;99.90
27162;DHT22;54464;50.558;9.704;2023-06-26T02:54:39;18.60;99.90
27162;DHT22;54464;50.558;9.704;2023-06-26T02:57:05;18.60;99.90
27162;DHT22;54464;50.558;9.704;2023-06-26T02:59:32;18.60;99.90
27162;DHT22;54464;50.558;9.704;2023-06-26T03:02:06;18.60;99.90
27162;DHT22;54464;50.558;9.704;2023-06-26T03:04:38;18.70;99.90
27162;DHT22;54464;50.558;9.704;2023-06-26T03:07:04;18.60;99.90
27162;DHT22;54464;50.558;9.704;2023-06-26T03:09:30;18.70;99.90
27162;DHT22;54464;50.558;9.704;2023-06-26T03:11:55;18.80;99.90
27162;DHT22;54464;50.558;9.704;2023-06-26T03:14:22;18.60;99.90
27162;DHT22;54464;50.558;9.704;2023-06-26T03:16:47;18.60;99.90
27162;DHT22;54464;50.558;9.704;2023-06-26T03:19:13;18.00;99.90
27162;DHT22;54464;50.558;9.704;2023-06-26T03:21:44;17.70;99.90
27162;DHT22;54464;50.558;9.704;2023-06-26T03:24:10;17.30;99.90
27162;DHT22;54464;50.558;9.704;2023-06-26T03:26:36;17.20;99.90
27162;DHT22;54464;50.558;9.704;2023-06-26T03:29:04;17.50;99.90
27162;DHT22;54464;50.558;9.704;2023-06-26T03:31:29;17.30;99.90
27162;DHT22;54464;50.558;9.704;2023-06-26T03:33:58;17.60;99.90
27162;DHT22;54464;50.558;9.704;2023-06-26T03:36:26;17.60;99.90
27162;DHT22;54464;50.558;9.704;2023-06-26T03:38:51;17.70;99.90
27162;DHT22;54464;50.558;9.704;2023-06-26T03:41:24;17.90;99.90
27162;DHT22;54464;50.558;9.704;2023-06-26T03:44:04;17.90;99.90
27162;DHT22;54464;50.558;9.704;2023-06-26T03:46:29;17.90;99.90
27162;DHT22;54464;50.558;9.704;2023-06-26T03:48:55;18.00;99.90
27162;DHT22;54464;50.558;9.704;2023-06-26T03:51:23;17.90;99.90
27162;DHT22;54464;50.558;9.704;2023-06-26T03:54:07;17.90;99.90
27162;DHT22;54464;50.558;9.704;2023-06-26T03:56:32;18.00;99.90
27162;DHT22;54464;50.558;9.704;2023-06-26T03:58:58;18.00;99.90
27162;DHT22;54464;50.558;9.704;2023-06-26T04:01:23;18.10;99.90
27162;DHT22;54464;50.558;9.704;2023-06-26T04:03:55;18.20;99.90
27162;DHT22;54464;50.558;9.704;2023-06-26T04:06:20;18.30;99.90
27162;DHT22;54464;50.558;9.704;2023-06-26T04:08:49;18.40;99.90
27162;DHT22;54464;50.558;9.704;2023-06-26T04:11:24;17.60;99.90
27162;DHT22;54464;50.558;9.704;2023-06-26T04:13:50;17.40;99.90
27162;DHT22;54464;50.558;9.704;2023-06-26T04:16:15;17.20;99.90
27162;DHT22;54464;50.558;9.704;2023-06-26T04:18:41;16.90;99.90
27162;DHT22;54464;50.558;9.704;2023-06-26T04:21:13;17.00;99.90
27162;DHT22;54464;50.558;9.704;2023-06-26T04:23:39;17.20;99.90
27162;DHT22;54464;50.558;9.704;2023-06-26T04:26:06;17.20;99.90
27162;DHT22;54464;50.558;9.704;2023-06-26T04:28:32;17.40;99.90
27162;DHT22;54464;50.558;9.704;2023-06-26T04:30:59;17.40;99.90
27162;DHT22;54464;50.558;9.704;2023-06-26T04:33:25;17.60;99.90
27162;DHT22;54464;50.558;9.704;2023-06-26T04:35:52;17.60;99.90
27162;DHT22;54464;50.558;9.704;2023-06-26T04:38:27;17.40;99.90
27162;DHT22;54464;50.558;9.704;2023-06-26T04:40:52;17.60;99.90
27162;DHT22;54464;50.558;9.704;2023-06-26T04:43:18;17.50;99.90
27162;DHT22;54464;50.558;9.704;2023-06-26T04:45:44;17.40;99.90
27162;DHT22;54464;50.558;9.704;2023-06-26T04:48:09;17.50;99.90
27162;DHT22;54464;50.558;9.704;2023-06-26T04:50:35;17.40;99.90
27162;DHT22;54464;50.558;9.704;2023-06-26T04:53:01;17.40;99.90
27162;DHT22;54464;50.558;9.704;2023-06-26T04:55:27;17.60;99.90
27162;DHT22;54464;50.558;9.704;2023-06-26T04:57:53;17.70;99.90
27162;DHT22;54464;50.558;9.704;2023-06-26T05:00:19;17.90;99.90
27162;DHT22;54464;50.558;9.704;2023-06-26T05:02:45;18.00;99.90
27162;DHT22;54464;50.558;9.704;2023-06-26T05:05:10;18.10;99.90
27162;DHT22;54464;50.558;9.704;2023-06-26T05:07:37;18.30;99.90
27162;DHT22;54464;50.558;9.704;2023-06-26T05:10:03;18.60;99.90
27162;DHT22;54464;50.558;9.704;2023-06-26T05:12:29;18.70;99.90
27162;DHT22;54464;50.558;9.704;2023-06-26T05:14:54;18.90;99.90
27162;DHT22;54464;50.558;9.704;2023-06-26T05:17:20;19.10;99.90
27162;DHT22;54464;50.558;9.704;2023-06-26T05:19:46;19.30;99.90
27162;DHT22;54464;50.558;9.704;2023-06-26T05:22:20;19.30;99.90
27162;DHT22;54464;50.558;9.704;2023-06-26T05:24:50;19.50;99.90
27162;DHT22;54464;50.558;9.704;2023-06-26T05:27:17;19.60;99.90
27162;DHT22;54464;50.558;9.704;2023-06-26T05:29:49;19.70;99.90
27162;DHT22;54464;50.558;9.704;2023-06-26T05:32:16;19.80;99.90
27162;DHT22;54464;50.558;9.704;2023-06-26T05:34:47;19.90;99.90
27162;DHT22;54464;50.558;9.704;2023-06-26T05:37:34;19.80;99.70
27162;DHT22;54464;50.558;9.704;2023-06-26T05:40:02;19.90;99.30
27162;DHT22;54464;50.558;9.704;2023-06-26T05:42:29;20.00;99.70
27162;DHT22;54464;50.558;9.704;2023-06-26T05:44:58;19.90;99.80
27162;DHT22;54464;50.558;9.704;2023-06-26T05:47:26;20.00;99.50
27162;DHT22;54464;50.558;9.704;2023-06-26T05:49:51;20.00;99.30
27162;DHT22;54464;50.558;9.704;2023-06-26T05:52:17;20.10;99.50
27162;DHT22;54464;50.558;9.704;2023-06-26T05:54:43;20.30;98.90
27162;DHT22;54464;50.558;9.704;2023-06-26T05:57:09;20.40;98.50
27162;DHT22;54464;50.558;9.704;2023-06-26T05:59:43;20.60;98.90
27162;DHT22;54464;50.558;9.704;2023-06-26T06:02:10;20.70;98.20
27162;DHT22;54464;50.558;9.704;2023-06-26T06:04:35;20.80;97.60
27162;DHT22;54464;50.558;9.704;2023-06-26T06:07:08;21.00;97.30
27162;DHT22;54464;50.558;9.704;2023-06-26T06:09:40;21.10;97.00
27162;DHT22;54464;50.558;9.704;2023-06-26T06:12:06;21.10;97.00
27162;DHT22;54464;50.558;9.704;2023-06-26T06:14:33;21.10;97.20
27162;DHT22;54464;50.558;9.704;2023-06-26T06:16:59;21.10;96.90
27162;DHT22;54464;50.558;9.704;2023-06-26T06:19:28;21.20;96.90
27162;DHT22;54464;50.558;9.704;2023-06-26T06:21:56;21.30;97.10
27162;DHT22;54464;50.558;9.704;2023-06-26T06:24:21;21.30;96.90
27162;DHT22;54464;50.558;9.704;2023-06-26T06:26:49;21.40;96.70
27162;DHT22;54464;50.558;9.704;2023-06-26T06:29:15;21.40;96.60
27162;DHT22;54464;50.558;9.704;2023-06-26T06:31:41;21.50;96.40
27162;DHT22;54464;50.558;9.704;2023-06-26T06:34:06;21.60;96.80
27162;DHT22;54464;50.558;9.704;2023-06-26T06:36:32;21.60;96.90
27162;DHT22;54464;50.558;9.704;2023-06-26T06:38:57;21.70;96.90
27162;DHT22;54464;50.558;9.704;2023-06-26T06:41:23;21.80;96.50
27162;DHT22;54464;50.558;9.704;2023-06-26T06:43:48;21.80;96.40
27162;DHT22;54464;50.558;9.704;2023-06-26T06:46:14;22.00;95.90
27162;DHT22;54464;50.558;9.704;2023-06-26T06:48:39;22.00;95.90
27162;DHT22;54464;50.558;9.704;2023-06-26T06:51:05;22.10;95.40
27162;DHT22;54464;50.558;9.704;2023-06-26T06:53:33;22.20;96.10
27162;DHT22;54464;50.558;9.704;2023-06-26T06:55:59;22.30;95.30
27162;DHT22;54464;50.558;9.704;2023-06-26T06:58:24;22.40;95.20
27162;DHT22;54464;50.558;9.704;2023-06-26T07:00:50;22.60;95.00
27162;DHT22;54464;50.558;9.704;2023-06-26T07:03:19;22.60;94.70
27162;DHT22;54464;50.558;9.704;2023-06-26T07:05:46;22.70;94.60
27162;DHT22;54464;50.558;9.704;2023-06-26T07:08:12;22.90;95.10
27162;DHT22;54464;50.558;9.704;2023-06-26T07:10:38;23.00;94.40
27162;DHT22;54464;50.558;9.704;2023-06-26T07:13:04;23.20;94.20
27162;DHT22;54464;50.558;9.704;2023-06-26T07:15:30;23.30;93.40
27162;DHT22;54464;50.558;9.704;2023-06-26T07:17:56;23.40;92.70
27162;DHT22;54464;50.558;9.704;2023-06-26T07:20:21;23.40;92.90
27162;DHT22;54464;50.558;9.704;2023-06-26T07:22:48;23.50;93.50
27162;DHT22;54464;50.558;9.704;2023-06-26T07:25:13;23.60;94.00
27162;DHT22;54464;50.558;9.704;2023-06-26T07:27:40;23.70;92.80
27162;DHT22;54464;50.558;9.704;2023-06-26T07:30:07;23.60;92.90
27162;DHT22;54464;50.558;9.704;2023-06-26T07:32:39;23.70;93.00
27162;DHT22;54464;50.558;9.704;2023-06-26T07:35:06;23.80;93.00
27162;DHT22;54464;50.558;9.704;2023-06-26T07:37:32;23.80;93.00
27162;DHT22;54464;50.558;9.704;2023-06-26T07:39:57;23.90;93.30
27162;DHT22;54464;50.558;9.704;2023-06-26T07:42:23;23.90;92.40
27162;DHT22;54464;50.558;9.704;2023-06-26T07:44:48;24.00;92.10
27162;DHT22;54464;50.558;9.704;2023-06-26T07:47:15;24.10;92.00
27162;DHT22;54464;50.558;9.704;2023-06-26T07:49:40;24.10;91.50
27162;DHT22;54464;50.558;9.704;2023-06-26T07:52:06;24.20;91.80
27162;DHT22;54464;50.558;9.704;2023-06-26T07:54:32;24.20;91.40
27162;DHT22;54464;50.558;9.704;2023-06-26T07:57:00;24.30;91.90
27162;DHT22;54464;50.558;9.704;2023-06-26T07:59:28;24.40;91.10
27162;DHT22;54464;50.558;9.704;2023-06-26T08:01:56;24.40;91.40
27162;DHT22;54464;50.558;9.704;2023-06-26T08:04:24;24.50;92.00
27162;DHT22;54464;50.558;9.704;2023-06-26T08:06:53;24.60;91.10
27162;DHT22;54464;50.558;9.704;2023-06-26T08:09:23;24.70;89.90
27162;DHT22;54464;50.558;9.704;2023-06-26T08:11:48;24.90;90.00
27162;DHT22;54464;50.558;9.704;2023-06-26T08:14:15;25.10;90.00
27162;DHT22;54464;50.558;9.704;2023-06-26T08:16:42;25.10;88.40
27162;DHT22;54464;50.558;9.704;2023-06-26T08:19:08;25.10;89.10
27162;DHT22;54464;50.558;9.704;2023-06-26T08:21:33;25.10;88.60
27162;DHT22;54464;50.558;9.704;2023-06-26T08:23:59;25.20;88.20
27162;DHT22;54464;50.558;9.704;2023-06-26T08:26:24;25.30;88.40
27162;DHT22;54464;50.558;9.704;2023-06-26T08:28:50;25.40;88.50
27162;DHT22;54464;50.558;9.704;2023-06-26T08:31:22;25.40;88.50
27162;DHT22;54464;50.558;9.704;2023-06-26T08:33:50;25.50;88.40
27162;DHT22;54464;50.558;9.704;2023-06-26T08:36:15;25.60;87.60
27162;DHT22;54464;50.558;9.704;2023-06-26T08:38:41;25.70;88.90
27162;DHT22;54464;50.558;9.704;2023-06-26T08:41:09;26.10;82.30
27162;DHT22;54464;50.558;9.704;2023-06-26T08:43:35;26.20;82.70
27162;DHT22;54464;50.558;9.704;2023-06-26T08:46:02;26.30;80.50
27162;DHT22;54464;50.558;9.704;2023-06-26T08:48:35;26.30;80.90
27162;DHT22;54464;50.558;9.704;2023-06-26T08:51:12;26.40;80.40
27162;DHT22;54464;50.558;9.704;2023-06-26T08:53:53;26.50;80.50
27162;DHT22;54464;50.558;9.704;2023-06-26T08:56:28;26.50;79.90
27162;DHT22;54464;50.558;9.704;2023-06-26T08:58:54;26.60;80.50
27162;DHT22;54464;50.558;9.704;2023-06-26T09:01:24;26.70;79.60
27162;DHT22;54464;50.558;9.704;2023-06-26T09:03:52;26.60;79.00
27162;DHT22;54464;50.558;9.704;2023-06-26T09:06:18;26.50;79.40
27162;DHT22;54464;50.558;9.704;2023-06-26T09:09:05;26.60;80.00
27162;DHT22;54464;50.558;9.704;2023-06-26T09:11:30;26.80;80.30
27162;DHT22;54464;50.558;9.704;2023-06-26T09:14:04;27.00;79.10
27162;DHT22;54464;50.558;9.704;2023-06-26T09:16:32;27.00;78.10
27162;DHT22;54464;50.558;9.704;2023-06-26T09:19:04;27.00;78.40
27162;DHT22;54464;50.558;9.704;2023-06-26T09:21:36;27.10;77.40
27162;DHT22;54464;50.558;9.704;2023-06-26T09:24:04;27.10;78.00
27162;DHT22;54464;50.558;9.704;2023-06-26T09:26:31;27.10;78.20
27162;DHT22;54464;50.558;9.704;2023-06-26T09:28:57;27.20;76.60
27162;DHT22;54464;50.558;9.704;2023-06-26T09:31:30;27.30;75.90
27162;DHT22;54464;50.558;9.704;2023-06-26T09:33:58;27.20;75.80
27162;DHT22;54464;50.558;9.704;2023-06-26T09:36:29;27.30;77.00
27162;DHT22;54464;50.558;9.704;2023-06-26T09:39:01;27.40;76.10
27162;DHT22;54464;50.558;9.704;2023-06-26T09:41:37;27.60;76.70
27162;DHT22;54464;50.558;9.704;2023-06-26T09:44:06;27.60;76.80
27162;DHT22;54464;50.558;9.704;2023-06-26T09:46:44;27.60;76.40
27162;DHT22;54464;50.558;9.704;2023-06-26T09:49:11;27.60;76.60
27162;DHT22;54464;50.558;9.704;2023-06-26T09:51:40;27.80;77.20
27162;DHT22;54464;50.558;9.704;2023-06-26T09:54:06;27.80;76.50
27162;DHT22;54464;50.558;9.704;2023-06-26T09:56:32;27.90;75.90
27162;DHT22;54464;50.558;9.704;2023-06-26T09:59:03;28.40;74.60
27162;DHT22;54464;50.558;9.704;2023-06-26T10:01:31;28.40;75.00
27162;DHT22;54464;50.558;9.704;2023-06-26T10:03:57;28.70;73.70
27162;DHT22;54464;50.558;9.704;2023-06-26T10:06:34;28.10;75.50
27162;DHT22;54464;50.558;9.704;2023-06-26T10:09:02;28.50;74.90
27162;DHT22;54464;50.558;9.704;2023-06-26T10:11:42;28.30;75.20
27162;DHT22;54464;50.558;9.704;2023-06-26T10:14:11;27.70;72.00
27162;DHT22;54464;50.558;9.704;2023-06-26T10:16:37;28.00;73.00
27162;DHT22;54464;50.558;9.704;2023-06-26T10:19:06;28.20;71.70
27162;DHT22;54464;50.558;9.704;2023-06-26T10:21:34;28.50;72.10
27162;DHT22;54464;50.558;9.704;2023-06-26T10:24:03;28.20;72.30
27162;DHT22;54464;50.558;9.704;2023-06-26T10:26:31;28.30;72.70
27162;DHT22;54464;50.558;9.704;2023-06-26T10:28:57;28.10;74.00
27162;DHT22;54464;50.558;9.704;2023-06-26T10:31:26;27.80;74.40
27162;DHT22;54464;50.558;9.704;2023-06-26T10:33:55;27.70;75.20
27162;DHT22;54464;50.558;9.704;2023-06-26T10:36:28;27.50;74.70
27162;DHT22;54464;50.558;9.704;2023-06-26T10:39:05;27.60;75.80
27162;DHT22;54464;50.558;9.704;2023-06-26T10:41:40;27.70;75.50
27162;DHT22;54464;50.558;9.704;2023-06-26T10:44:15;28.10;75.80
27162;DHT22;54464;50.558;9.704;2023-06-26T10:46:55;28.00;75.30
27162;DHT22;54464;50.558;9.704;2023-06-26T10:49:27;27.70;75.90
27162;DHT22;54464;50.558;9.704;2023-06-26T10:51:53;27.80;76.20
27162;DHT22;54464;50.558;9.704;2023-06-26T10:54:21;27.60;77.90
27162;DHT22;54464;50.558;9.704;2023-06-26T10:56:49;27.10;79.20
27162;DHT22;54464;50.558;9.704;2023-06-26T10:59:27;27.00;80.60
27162;DHT22;54464;50.558;9.704;2023-06-26T11:02:00;26.90;80.20
27162;DHT22;54464;50.558;9.704;2023-06-26T11:04:45;27.00;80.70
27162;DHT22;54464;50.558;9.704;2023-06-26T11:12:40;26.40;82.60
27162;DHT22;54464;50.558;9.704;2023-06-26T11:15:11;26.40;82.60
27162;DHT22;54464;50.558;9.704;2023-06-26T11:17:39;26.30;82.60
27162;DHT22;54464;50.558;9.704;2023-06-26T11:20:12;26.70;83.70
27162;DHT22;54464;50.558;9.704;2023-06-26T11:22:42;26.50;82.80
27162;DHT22;54464;50.558;9.704;2023-06-26T11:25:09;26.90;82.00
27162;DHT22;54464;50.558;9.704;2023-06-26T11:30:04;27.50;80.10
27162;DHT22;54464;50.558;9.704;2023-06-26T11:32:30;27.40;80.30
27162;DHT22;54464;50.558;9.704;2023-06-26T11:34:58;26.90;81.30
27162;DHT22;54464;50.558;9.704;2023-06-26T11:37:24;26.50;83.10
27162;DHT22;54464;50.558;9.704;2023-06-26T11:39:50;26.50;83.80
27162;DHT22;54464;50.558;9.704;2023-06-26T11:42:20;26.60;84.70
27162;DHT22;54464;50.558;9.704;2023-06-26T11:44:46;26.70;84.80
27162;DHT22;54464;50.558;9.704;2023-06-26T11:47:18;26.90;83.50
27162;DHT22;54464;50.558;9.704;2023-06-26T11:49:45;27.20;84.40
27162;DHT22;54464;50.558;9.704;2023-06-26T11:52:32;27.40;83.70
27162;DHT22;54464;50.558;9.704;2023-06-26T11:54:56;27.30;83.10
27162;DHT22;54464;50.558;9.704;2023-06-26T11:57:22;27.80;81.80
27162;DHT22;54464;50.558;9.704;2023-06-26T11:59:53;28.30;81.10
27162;DHT22;54464;50.558;9.704;2023-06-26T12:02:18;28.00;82.30
27162;DHT22;54464;50.558;9.704;2023-06-26T12:04:45;27.30;84.50
27162;DHT22;54464;50.558;9.704;2023-06-26T12:07:12;27.20;85.00
27162;DHT22;54464;50.558;9.704;2023-06-26T12:09:43;27.10;85.30
27162;DHT22;54464;50.558;9.704;2023-06-26T12:12:11;26.90;85.50
27162;DHT22;54464;50.558;9.704;2023-06-26T12:14:37;27.00;87.00
27162;DHT22;54464;50.558;9.704;2023-06-26T12:17:10;26.80;87.70
27162;DHT22;54464;50.558;9.704;2023-06-26T12:19:37;26.90;88.00
27162;DHT22;54464;50.558;9.704;2023-06-26T12:22:07;26.90;87.70
27162;DHT22;54464;50.558;9.704;2023-06-26T12:24:34;27.40;86.70
27162;DHT22;54464;50.558;9.704;2023-06-26T12:27:01;27.70;86.10
27162;DHT22;54464;50.558;9.704;2023-06-26T12:29:32;27.50;85.80
27162;DHT22;54464;50.558;9.704;2023-06-26T12:31:59;26.90;87.20
27162;DHT22;54464;50.558;9.704;2023-06-26T12:34:36;26.60;88.60
27162;DHT22;54464;50.558;9.704;2023-06-26T12:37:07;26.60;88.80
27162;DHT22;54464;50.558;9.704;2023-06-26T12:39:53;26.30;88.00
27162;DHT22;54464;50.558;9.704;2023-06-26T12:42:22;26.20;89.00
27162;DHT22;54464;50.558;9.704;2023-06-26T12:44:49;26.10;89.70
27162;DHT22;54464;50.558;9.704;2023-06-26T12:47:23;26.20;89.70
27162;DHT22;54464;50.558;9.704;2023-06-26T12:49:52;26.10;89.20
27162;DHT22;54464;50.558;9.704;2023-06-26T12:52:18;26.10;89.40
27162;DHT22;54464;50.558;9.704;2023-06-26T12:54:45;25.90;90.00
27162;DHT22;54464;50.558;9.704;2023-06-26T12:57:12;25.70;89.20
27162;DHT22;54464;50.558;9.704;2023-06-26T12:59:39;26.00;88.40
27162;DHT22;54464;50.558;9.704;2023-06-26T13:02:06;26.80;86.40
27162;DHT22;54464;50.558;9.704;2023-06-26T13:04:32;26.90;84.60
27162;DHT22;54464;50.558;9.704;2023-06-26T13:06:58;27.40;83.50
27162;DHT22;54464;50.558;9.704;2023-06-26T13:09:24;26.80;83.80
27162;DHT22;54464;50.558;9.704;2023-06-26T13:11:51;26.30;85.20
27162;DHT22;54464;50.558;9.704;2023-06-26T13:14:16;26.00;85.60
27162;DHT22;54464;50.558;9.704;2023-06-26T13:16:42;26.20;85.40
27162;DHT22;54464;50.558;9.704;2023-06-26T13:19:08;27.00;83.40
27162;DHT22;54464;50.558;9.704;2023-06-26T13:21:34;27.70;82.20
27162;DHT22;54464;50.558;9.704;2023-06-26T13:24:00;27.40;81.60
27162;DHT22;54464;50.558;9.704;2023-06-26T13:26:26;27.20;81.50
27162;DHT22;54464;50.558;9.704;2023-06-26T13:28:54;27.20;80.50
27162;DHT22;54464;50.558;9.704;2023-06-26T13:31:19;27.00;80.90
27162;DHT22;54464;50.558;9.704;2023-06-26T13:33:46;26.70;82.20
27162;DHT22;54464;50.558;9.704;2023-06-26T13:36:14;27.20;82.30
27162;DHT22;54464;50.558;9.704;2023-06-26T13:38:40;27.30;82.60
27162;DHT22;54464;50.558;9.704;2023-06-26T13:41:05;27.20;82.60
27162;DHT22;54464;50.558;9.704;2023-06-26T13:43:31;28.20;81.80
27162;DHT22;54464;50.558;9.704;2023-06-26T13:45:57;27.80;80.90
27162;DHT22;54464;50.558;9.704;2023-06-26T13:48:23;27.20;81.80
27162;DHT22;54464;50.558;9.704;2023-06-26T13:50:52;27.70;80.90
27162;DHT22;54464;50.558;9.704;2023-06-26T13:53:18;28.50;79.40
27162;DHT22;54464;50.558;9.704;2023-06-26T13:55:44;28.30;79.10
27162;DHT22;54464;50.558;9.704;2023-06-26T13:58:10;27.80;79.10
27162;DHT22;54464;50.558;9.704;2023-06-26T14:00:37;26.70;80.90
27162;DHT22;54464;50.558;9.704;2023-06-26T14:03:04;27.20;81.30
27162;DHT22;54464;50.558;9.704;2023-06-26T14:05:34;27.90;79.80
27162;DHT22;54464;50.558;9.704;2023-06-26T14:08:03;28.90;78.60
27162;DHT22;54464;50.558;9.704;2023-06-26T14:10:30;28.40;78.70
27162;DHT22;54464;50.558;9.704;2023-06-26T14:12:55;27.30;78.40
27162;DHT22;54464;50.558;9.704;2023-06-26T14:15:21;27.80;76.70
27162;DHT22;54464;50.558;9.704;2023-06-26T14:17:46;28.30;75.60
27162;DHT22;54464;50.558;9.704;2023-06-26T14:20:15;28.50;73.30
27162;DHT22;54464;50.558;9.704;2023-06-26T14:22:42;27.50;72.90
27162;DHT22;54464;50.558;9.704;2023-06-26T14:25:09;26.70;75.00
27162;DHT22;54464;50.558;9.704;2023-06-26T14:27:35;26.20;78.10
27162;DHT22;54464;50.558;9.704;2023-06-26T14:30:03;26.70;72.60
27162;DHT22;54464;50.558;9.704;2023-06-26T14:32:29;27.60;71.40
27162;DHT22;54464;50.558;9.704;2023-06-26T14:34:55;27.60;71.00
27162;DHT22;54464;50.558;9.704;2023-06-26T14:37:20;27.70;69.80
27162;DHT22;54464;50.558;9.704;2023-06-26T14:39:46;27.60;72.20
27162;DHT22;54464;50.558;9.704;2023-06-26T14:42:11;26.60;73.40
27162;DHT22;54464;50.558;9.704;2023-06-26T14:44:38;26.30;73.60
27162;DHT22;54464;50.558;9.704;2023-06-26T14:47:04;25.70;73.50
27162;DHT22;54464;50.558;9.704;2023-06-26T14:49:30;25.60;74.80
27162;DHT22;54464;50.558;9.704;2023-06-26T14:51:59;25.60;75.00
27162;DHT22;54464;50.558;9.704;2023-06-26T14:54:27;25.70;74.00
27162;DHT22;54464;50.558;9.704;2023-06-26T14:56:52;26.90;72.70
27162;DHT22;54464;50.558;9.704;2023-06-26T14:59:18;27.40;70.50
27162;DHT22;54464;50.558;9.704;2023-06-26T15:01:43;27.00;69.90
27162;DHT22;54464;50.558;9.704;2023-06-26T15:04:09;27.30;68.10
27162;DHT22;54464;50.558;9.704;2023-06-26T15:06:35;27.20;67.50
27162;DHT22;54464;50.558;9.704;2023-06-26T15:09:01;27.30;66.60
27162;DHT22;54464;50.558;9.704;2023-06-26T15:11:28;27.90;66.80
27162;DHT22;54464;50.558;9.704;2023-06-26T15:13:55;27.60;66.50
27162;DHT22;54464;50.558;9.704;2023-06-26T15:16:21;27.40;65.50
27162;DHT22;54464;50.558;9.704;2023-06-26T15:18:49;27.80;68.00
27162;DHT22;54464;50.558;9.704;2023-06-26T15:21:17;27.60;66.10
27162;DHT22;54464;50.558;9.704;2023-06-26T15:23:44;27.10;67.50
27162;DHT22;54464;50.558;9.704;2023-06-26T15:26:10;27.80;67.80
27162;DHT22;54464;50.558;9.704;2023-06-26T15:28:35;28.40;64.30
27162;DHT22;54464;50.558;9.704;2023-06-26T15:31:01;28.70;62.70
27162;DHT22;54464;50.558;9.704;2023-06-26T15:33:26;28.00;61.50
27162;DHT22;54464;50.558;9.704;2023-06-26T15:35:52;28.10;63.70
27162;DHT22;54464;50.558;9.704;2023-06-26T15:38:18;27.20;66.10
27162;DHT22;54464;50.558;9.704;2023-06-26T15:40:43;26.90;66.00
27162;DHT22;54464;50.558;9.704;2023-06-26T15:43:09;26.70;66.70
27162;DHT22;54464;50.558;9.704;2023-06-26T15:45:34;27.00;66.80
27162;DHT22;54464;50.558;9.704;2023-06-26T15:48:00;27.40;67.50